Time;durP1;ratioP1;P1;durP2;ratioP2;P2;SDS_P1;SDS_P2;PMS_P1;PMS_P2;Temp;Humidity;BMP_temperature;BMP_pressure;BME280_temperature;BME280_humidity;BME280_pressure;Samples;Min_cycle;Max_cycle;Signal;HPM_P1;HPM_P2
2023/01/03 00:01:32;;;;;;;;;;;18.60;53.50;;;;;;5075694;28;19915;-53
2023/01/03 00:03:57;;;;;;;;;;;18.60;53.40;;;;;;5075579;28;20280;-53
2023/01/03 00:06:30;;;;;;;;;;;18.60;53.50;;;;;;5075109;28;19923;-53
2023/01/03 00:08:56;;;;;;;;;;;18.50;53.20;;;;;;5074430;28;20396;-53
2023/01/03 00:12:22;;;;;;;;;;;18.50;53.10;;;;;;5075280;28;19955;-53
2023/01/03 00:14:09;;;;;;;;;;;18.50;53.10;;;;;;5073693;28;19912;-53
2023/01/03 00:16:34;;;;;;;;;;;18.50;53.00;;;;;;5075567;28;19913;-54
2023/01/03 00:19:04;;;;;;;;;;;18.50;53.10;;;;;;5072435;28;19909;-53
2023/01/03 00:21:29;;;;;;;;;;;18.50;52.90;;;;;;5062080;28;20427;-53
2023/01/03 00:23:55;;;;;;;;;;;18.50;52.90;;;;;;5074629;28;20011;-53
2023/01/03 00:26:20;;;;;;;;;;;18.40;52.90;;;;;;5074281;28;19971;-52
2023/01/03 00:28:45;;;;;;;;;;;18.40;53.00;;;;;;5074703;28;19909;-55
2023/01/03 00:31:11;;;;;;;;;;;18.40;53.10;;;;;;5074665;28;19916;-53
2023/01/03 00:33:37;;;;;;;;;;;18.30;53.10;;;;;;5075047;28;19909;-54
2023/01/03 00:36:03;;;;;;;;;;;18.30;53.00;;;;;;5074931;28;19912;-53
2023/01/03 00:38:28;;;;;;;;;;;18.30;52.90;;;;;;5074568;28;19914;-53
2023/01/03 00:40:54;;;;;;;;;;;18.30;52.90;;;;;;5074775;28;19932;-53
2023/01/03 00:43:28;;;;;;;;;;;18.30;52.90;;;;;;5072846;28;20016;-53
2023/01/03 00:45:54;;;;;;;;;;;18.30;53.00;;;;;;5078992;28;19974;-53
2023/01/03 00:48:19;;;;;;;;;;;18.20;52.90;;;;;;5073460;28;19912;-53
2023/01/03 00:50:45;;;;;;;;;;;18.20;53.20;;;;;;5075029;28;19913;-52
2023/01/03 00:53:10;;;;;;;;;;;18.20;53.00;;;;;;5072762;28;19966;-53
2023/01/03 00:55:36;;;;;;;;;;;18.20;52.90;;;;;;5074214;28;20320;-52
2023/01/03 00:58:01;;;;;;;;;;;18.20;52.90;;;;;;5074463;28;20761;-54
2023/01/03 01:00:26;;;;;;;;;;;18.20;53.10;;;;;;5074332;28;19923;-54
2023/01/03 01:02:52;;;;;;;;;;;18.10;53.10;;;;;;5070824;28;19974;-52
2023/01/03 01:05:18;;;;;;;;;;;18.10;53.20;;;;;;5069468;28;20401;-53
2023/01/03 01:07:43;;;;;;;;;;;18.10;53.00;;;;;;5067187;28;20019;-54
2023/01/03 01:10:09;;;;;;;;;;;18.10;53.00;;;;;;5070171;28;19956;-53
2023/01/03 01:12:34;;;;;;;;;;;18.10;52.90;;;;;;5073330;28;19936;-52
2023/01/03 01:15:00;;;;;;;;;;;18.10;52.90;;;;;;5072107;28;19912;-53
2023/01/03 01:17:27;;;;;;;;;;;18.10;53.00;;;;;;5073779;28;20249;-53
2023/01/03 01:19:52;;;;;;;;;;;18.10;53.00;;;;;;5064143;28;19909;-53
2023/01/03 01:22:18;;;;;;;;;;;18.10;53.00;;;;;;5080754;28;19920;-53
2023/01/03 01:24:43;;;;;;;;;;;18.10;53.00;;;;;;5074255;28;19913;-54
2023/01/03 01:27:09;;;;;;;;;;;18.10;53.00;;;;;;5074104;28;19916;-54
2023/01/03 01:29:35;;;;;;;;;;;18.00;52.90;;;;;;5073514;28;19912;-53
2023/01/03 01:32:01;;;;;;;;;;;18.00;53.20;;;;;;5073920;28;19916;-53
2023/01/03 01:34:26;;;;;;;;;;;18.00;53.20;;;;;;5093223;28;19991;-53
2023/01/03 01:36:51;;;;;;;;;;;17.90;53.20;;;;;;5086863;28;19919;-53
2023/01/03 01:39:19;;;;;;;;;;;17.90;53.20;;;;;;5073018;28;19970;-53
2023/01/03 01:44:50;;;;;;;;;;;17.90;53.20;;;;;;5063098;28;20419;-53
2023/01/03 01:47:19;;;;;;;;;;;17.90;53.20;;;;;;5070862;28;20011;-53
2023/01/03 01:49:45;;;;;;;;;;;17.90;53.20;;;;;;5071547;28;19963;-53
2023/01/03 01:52:10;;;;;;;;;;;17.90;53.20;;;;;;5066164;28;19959;-53
2023/01/03 01:54:36;;;;;;;;;;;17.90;53.20;;;;;;5082231;28;19917;-53
2023/01/03 01:57:02;;;;;;;;;;;17.90;53.20;;;;;;5070269;28;19912;-52
2023/01/03 01:59:27;;;;;;;;;;;17.90;53.20;;;;;;5072893;28;19908;-53
2023/01/03 02:01:52;;;;;;;;;;;17.80;53.10;;;;;;5073509;28;19916;-53
2023/01/03 02:04:20;;;;;;;;;;;17.80;53.00;;;;;;5071827;28;19977;-53
2023/01/03 02:06:45;;;;;;;;;;;17.80;53.00;;;;;;5072046;28;20010;-53
2023/01/03 02:09:10;;;;;;;;;;;17.80;52.90;;;;;;5073088;28;20020;-54
2023/01/03 02:11:46;;;;;;;;;;;17.70;53.00;;;;;;5072651;28;19927;-54
2023/01/03 02:14:26;;;;;;;;;;;17.90;52.90;;;;;;5071233;28;19908;-53
2023/01/03 02:17:06;;;;;;;;;;;18.00;52.60;;;;;;5056509;28;20011;-53
2023/01/03 02:19:35;;;;;;;;;;;18.30;52.20;;;;;;5056738;28;19912;-53
2023/01/03 02:22:09;;;;;;;;;;;18.60;51.30;;;;;;5072252;28;19920;-53
2023/01/03 02:24:53;;;;;;;;;;;18.90;50.40;;;;;;5072011;28;19912;-53
2023/01/03 02:27:19;;;;;;;;;;;19.30;49.70;;;;;;5065079;28;19921;-53
2023/01/03 02:30:03;;;;;;;;;;;19.70;49.00;;;;;;5065195;28;20316;-52
2023/01/03 02:32:39;;;;;;;;;;;20.20;48.00;;;;;;5065314;28;19919;-53
2023/01/03 02:35:07;;;;;;;;;;;20.90;46.70;;;;;;5066088;28;19923;-53
2023/01/03 02:37:36;;;;;;;;;;;21.30;45.70;;;;;;5095885;28;19952;-52
2023/01/03 02:40:28;;;;;;;;;;;21.50;45.20;;;;;;5064595;28;19916;-52
2023/01/03 02:42:57;;;;;;;;;;;21.60;45.20;;;;;;5063205;28;19916;-52
2023/01/03 02:45:35;;;;;;;;;;;21.50;45.10;;;;;;5065928;28;20536;-52
2023/01/03 02:48:01;;;;;;;;;;;21.50;45.40;;;;;;5064708;28;19990;-52
2023/01/03 02:50:27;;;;;;;;;;;21.30;45.50;;;;;;5065442;28;20356;-52
2023/01/03 02:52:53;;;;;;;;;;;21.10;45.50;;;;;;5064837;28;20007;-53
2023/01/03 02:55:20;;;;;;;;;;;21.00;45.90;;;;;;5064438;28;19935;-53
2023/01/03 02:57:49;;;;;;;;;;;20.80;46.20;;;;;;5063538;28;19924;-53
2023/01/03 03:00:15;;;;;;;;;;;20.60;46.50;;;;;;5064039;28;19919;-53
2023/01/03 03:02:44;;;;;;;;;;;20.50;46.90;;;;;;5064574;28;20343;-53
2023/01/03 03:05:11;;;;;;;;;;;20.30;47.20;;;;;;5062943;28;20379;-53
2023/01/03 03:07:38;;;;;;;;;;;20.10;47.50;;;;;;5065364;28;19920;-53
2023/01/03 03:15:36;;;;;;;;;;;19.70;48.30;;;;;;5067763;28;20062;-53
2023/01/03 03:18:04;;;;;;;;;;;19.60;48.60;;;;;;5065273;28;19916;-53
2023/01/03 03:26:03;;;;;;;;;;;19.30;49.20;;;;;;5065118;28;19955;-54
2023/01/03 03:28:35;;;;;;;;;;;19.20;49.40;;;;;;5063632;27;19970;-54
2023/01/03 03:31:07;;;;;;;;;;;19.20;49.50;;;;;;5064038;28;20384;-54
2023/01/03 03:33:33;;;;;;;;;;;19.10;49.60;;;;;;5065632;28;19912;-53
2023/01/03 03:36:06;;;;;;;;;;;19.10;49.60;;;;;;5062872;28;20042;-53
2023/01/03 03:38:41;;;;;;;;;;;19.00;49.60;;;;;;5063938;28;19913;-53
2023/01/03 03:46:59;;;;;;;;;;;19.10;49.10;;;;;;5064329;28;20000;-52
2023/01/03 03:49:36;;;;;;;;;;;19.30;48.80;;;;;;5063818;28;20288;-53
2023/01/03 03:52:02;;;;;;;;;;;19.50;48.50;;;;;;5092125;28;19919;-53
2023/01/03 03:54:28;;;;;;;;;;;19.70;47.90;;;;;;5065430;28;19916;-53
2023/01/03 03:56:57;;;;;;;;;;;19.80;47.50;;;;;;5065057;28;19912;-53
2023/01/03 03:59:23;;;;;;;;;;;19.90;47.30;;;;;;5063388;28;19956;-52
2023/01/03 04:01:48;;;;;;;;;;;20.00;47.00;;;;;;5063553;28;19998;-53
2023/01/03 04:04:17;;;;;;;;;;;20.00;47.00;;;;;;5063203;28;19956;-53
2023/01/03 04:06:44;;;;;;;;;;;19.90;47.70;;;;;;5094367;28;19959;-52
2023/01/03 04:09:10;;;;;;;;;;;19.80;47.30;;;;;;5065077;28;19920;-53
2023/01/03 04:11:35;;;;;;;;;;;19.70;47.50;;;;;;5064107;28;19927;-53
2023/01/03 04:14:00;;;;;;;;;;;19.50;47.60;;;;;;5066454;28;19920;-52
2023/01/03 04:16:26;;;;;;;;;;;19.40;47.80;;;;;;5071288;28;19947;-53
2023/01/03 04:18:52;;;;;;;;;;;19.30;48.00;;;;;;5064402;28;19952;-53
2023/01/03 04:21:17;;;;;;;;;;;19.30;48.30;;;;;;5063672;28;19921;-53
2023/01/03 04:23:42;;;;;;;;;;;19.10;48.40;;;;;;5066726;28;20330;-53
2023/01/03 04:26:08;;;;;;;;;;;19.10;48.80;;;;;;5065337;28;20372;-53
2023/01/03 04:28:33;;;;;;;;;;;19.10;48.70;;;;;;5063992;28;19974;-53
2023/01/03 04:30:59;;;;;;;;;;;19.00;48.70;;;;;;5064512;28;20010;-54
2023/01/03 04:33:24;;;;;;;;;;;19.10;48.70;;;;;;5064436;28;20016;-53
2023/01/03 04:35:49;;;;;;;;;;;19.10;48.60;;;;;;5064886;28;19920;-54
2023/01/03 04:38:16;;;;;;;;;;;19.20;48.40;;;;;;5065370;28;19982;-52
2023/01/03 04:40:41;;;;;;;;;;;19.30;48.10;;;;;;5066803;28;19916;-54
2023/01/03 04:46:08;;;;;;;;;;;19.50;47.60;;;;;;5050873;28;20018;-54
2023/01/03 04:48:33;;;;;;;;;;;19.60;47.50;;;;;;5068516;28;19924;-54
2023/01/03 04:50:59;;;;;;;;;;;19.60;47.40;;;;;;5068855;28;19966;-54
2023/01/03 04:53:24;;;;;;;;;;;19.60;47.40;;;;;;5069823;28;19917;-54
2023/01/03 04:55:50;;;;;;;;;;;19.60;47.40;;;;;;5068941;28;19917;-54
2023/01/03 04:58:16;;;;;;;;;;;19.60;47.40;;;;;;5066781;28;19920;-54
2023/01/03 05:00:41;;;;;;;;;;;19.60;47.20;;;;;;5067556;28;19923;-54
2023/01/03 05:03:07;;;;;;;;;;;19.60;47.20;;;;;;5067602;28;19920;-54
2023/01/03 05:05:32;;;;;;;;;;;19.60;47.20;;;;;;5065240;28;19912;-54
2023/01/03 05:07:57;;;;;;;;;;;19.60;47.30;;;;;;5067877;28;19916;-54
2023/01/03 05:10:23;;;;;;;;;;;19.50;47.30;;;;;;5066940;28;20003;-54
2023/01/03 05:12:58;;;;;;;;;;;19.50;47.30;;;;;;5067711;28;19994;-54
2023/01/03 05:15:27;;;;;;;;;;;19.40;47.40;;;;;;5063746;28;19952;-54
2023/01/03 05:17:52;;;;;;;;;;;19.40;47.40;;;;;;5072981;28;19966;-54
2023/01/03 05:25:49;;;;;;;;;;;19.20;47.70;;;;;;5066051;28;19927;-54
2023/01/03 05:28:15;;;;;;;;;;;19.10;47.90;;;;;;5065147;28;19976;-53
2023/01/03 05:30:40;;;;;;;;;;;19.10;48.10;;;;;;5068411;28;19938;-52
2023/01/03 05:33:05;;;;;;;;;;;19.00;48.20;;;;;;5067338;28;19943;-53
2023/01/03 05:35:31;;;;;;;;;;;18.90;48.20;;;;;;5066274;28;19920;-53
2023/01/03 05:37:56;;;;;;;;;;;18.90;48.20;;;;;;5066641;28;19912;-52
2023/01/03 05:40:22;;;;;;;;;;;18.90;48.30;;;;;;5065565;28;19916;-52
2023/01/03 05:42:47;;;;;;;;;;;19.00;48.20;;;;;;5067106;28;19920;-55
2023/01/03 05:45:12;;;;;;;;;;;19.00;48.10;;;;;;5069995;28;19922;-54
2023/01/03 05:47:38;;;;;;;;;;;19.10;48.00;;;;;;5072671;28;20005;-54
2023/01/03 05:50:04;;;;;;;;;;;19.20;47.80;;;;;;5066869;28;19963;-54
2023/01/03 05:52:29;;;;;;;;;;;19.30;47.60;;;;;;5067099;28;20009;-52
2023/01/03 05:54:55;;;;;;;;;;;19.30;47.40;;;;;;5066176;28;19917;-52
2023/01/03 05:57:20;;;;;;;;;;;19.40;47.20;;;;;;5066889;28;19916;-54
2023/01/03 05:59:45;;;;;;;;;;;19.50;47.00;;;;;;5066468;28;19921;-53
2023/01/03 06:02:11;;;;;;;;;;;19.50;46.90;;;;;;5066789;28;19912;-54
2023/01/03 06:04:36;;;;;;;;;;;19.60;46.80;;;;;;5065245;28;19987;-53
2023/01/03 06:07:02;;;;;;;;;;;19.60;46.70;;;;;;5064588;28;20376;-54
2023/01/03 06:09:27;;;;;;;;;;;19.60;46.70;;;;;;5064522;28;19912;-53
2023/01/03 06:11:53;;;;;;;;;;;19.60;46.80;;;;;;5066330;28;19979;-53
2023/01/03 06:14:18;;;;;;;;;;;19.50;46.80;;;;;;5066605;28;19913;-53
2023/01/03 06:19:28;;;;;;;;;;;19.50;47.10;;;;;;5067858;28;20288;-53
2023/01/03 06:21:53;;;;;;;;;;;19.40;47.10;;;;;;5067171;28;19916;-53
2023/01/03 06:24:19;;;;;;;;;;;19.30;47.30;;;;;;5067855;28;19912;-53
2023/01/03 06:26:44;;;;;;;;;;;19.30;47.40;;;;;;5066866;28;19916;-53
2023/01/03 06:29:10;;;;;;;;;;;19.20;47.60;;;;;;5067304;28;19930;-52
2023/01/03 06:31:35;;;;;;;;;;;19.10;47.70;;;;;;5065804;28;20371;-53
2023/01/03 06:34:01;;;;;;;;;;;19.00;48.50;;;;;;5069879;28;20285;-53
2023/01/03 06:36:27;;;;;;;;;;;19.00;47.90;;;;;;5056200;28;19919;-53
2023/01/03 06:38:52;;;;;;;;;;;18.90;48.00;;;;;;5064483;28;19919;-53
2023/01/03 06:41:17;;;;;;;;;;;18.90;48.00;;;;;;5065321;28;19917;-52
2023/01/03 06:43:43;;;;;;;;;;;19.00;48.00;;;;;;5064769;28;19920;-53
2023/01/03 06:54:28;;;;;;;;;;;19.20;47.50;;;;;;5064366;28;19923;-52
2023/01/03 06:56:54;;;;;;;;;;;19.30;47.30;;;;;;5064281;28;20007;-53
2023/01/03 06:59:19;;;;;;;;;;;19.30;47.10;;;;;;5064665;28;20628;-54
2023/01/03 07:01:45;;;;;;;;;;;19.40;47.00;;;;;;5062433;28;20029;-53
2023/01/03 07:04:11;;;;;;;;;;;19.40;46.90;;;;;;5063027;28;19951;-53
2023/01/03 07:06:36;;;;;;;;;;;19.50;46.90;;;;;;5066605;28;19912;-53
2023/01/03 07:09:02;;;;;;;;;;;19.50;46.80;;;;;;5065255;28;19926;-53
2023/01/03 07:11:27;;;;;;;;;;;19.50;46.80;;;;;;5064592;28;19953;-53
2023/01/03 07:13:59;;;;;;;;;;;19.50;46.80;;;;;;5065058;28;19917;-52
2023/01/03 07:16:28;;;;;;;;;;;19.50;46.80;;;;;;5069615;28;19919;-54
2023/01/03 07:18:53;;;;;;;;;;;19.40;46.90;;;;;;5066889;28;19921;-54
2023/01/03 07:21:19;;;;;;;;;;;19.30;47.00;;;;;;5064641;28;19916;-55
2023/01/03 07:23:44;;;;;;;;;;;19.30;47.10;;;;;;5067724;28;19924;-53
2023/01/03 07:26:10;;;;;;;;;;;19.20;47.20;;;;;;5065080;28;20718;-53
2023/01/03 07:28:35;;;;;;;;;;;19.10;47.20;;;;;;5064407;28;19935;-53
2023/01/03 07:31:03;;;;;;;;;;;19.10;47.40;;;;;;5066150;28;19923;-53
2023/01/03 07:33:29;;;;;;;;;;;19.10;47.40;;;;;;5065608;28;19966;-54
2023/01/03 07:36:00;;;;;;;;;;;19.10;47.50;;;;;;5064908;28;19958;-54
2023/01/03 07:38:26;;;;;;;;;;;19.10;47.40;;;;;;5064273;28;20117;-53
2023/01/03 07:40:51;;;;;;;;;;;19.10;47.30;;;;;;5064923;28;20006;-54
2023/01/03 07:46:04;;;;;;;;;;;19.20;47.00;;;;;;5066988;28;19978;-53
2023/01/03 07:48:29;;;;;;;;;;;19.30;47.00;;;;;;5064778;28;20134;-54
2023/01/03 07:50:55;;;;;;;;;;;19.30;46.90;;;;;;5064716;28;20460;-53
2023/01/03 07:53:20;;;;;;;;;;;19.30;46.80;;;;;;5065235;28;20323;-54
2023/01/03 07:55:46;;;;;;;;;;;19.40;46.70;;;;;;5066255;28;19956;-54
2023/01/03 07:58:11;;;;;;;;;;;19.40;46.70;;;;;;5066583;28;21316;-53
2023/01/03 08:00:37;;;;;;;;;;;19.30;46.70;;;;;;5062967;28;19956;-54
2023/01/03 08:03:03;;;;;;;;;;;19.30;46.70;;;;;;5065166;28;20265;-53
2023/01/03 08:05:28;;;;;;;;;;;19.30;46.70;;;;;;5065567;28;19920;-53
2023/01/03 08:07:53;;;;;;;;;;;19.30;46.70;;;;;;5064760;28;19923;-53
2023/01/03 08:13:16;;;;;;;;;;;19.20;46.70;;;;;;5058338;28;20011;-53
2023/01/03 08:15:45;;;;;;;;;;;19.10;46.70;;;;;;5068441;28;20004;-53
2023/01/03 08:18:11;;;;;;;;;;;19.10;46.90;;;;;;5065846;28;19916;-53
2023/01/03 08:20:37;;;;;;;;;;;19.10;47.00;;;;;;5066390;28;20276;-54
2023/01/03 08:23:02;;;;;;;;;;;19.10;47.00;;;;;;5050336;28;19925;-53
2023/01/03 08:25:28;;;;;;;;;;;19.00;46.90;;;;;;5048485;28;19913;-53
2023/01/03 08:27:56;;;;;;;;;;;19.00;46.90;;;;;;5047903;28;19928;-53
2023/01/03 08:30:21;;;;;;;;;;;19.00;46.90;;;;;;5048392;28;19912;-53
2023/01/03 08:32:47;;;;;;;;;;;19.00;46.80;;;;;;5047050;28;19917;-53
2023/01/03 08:35:12;;;;;;;;;;;19.10;46.90;;;;;;5047934;28;19916;-53
2023/01/03 08:37:37;;;;;;;;;;;19.10;46.80;;;;;;5046353;28;19920;-53
2023/01/03 08:40:03;;;;;;;;;;;19.10;47.40;;;;;;5048025;28;20276;-53
2023/01/03 08:42:29;;;;;;;;;;;19.10;46.70;;;;;;5047724;28;20963;-53
2023/01/03 08:44:56;;;;;;;;;;;19.10;46.60;;;;;;5047042;28;19935;-53
2023/01/03 08:47:21;;;;;;;;;;;19.10;46.60;;;;;;5047171;28;20038;-53
2023/01/03 08:49:47;;;;;;;;;;;19.10;46.40;;;;;;5047683;28;19936;-53
2023/01/03 08:52:12;;;;;;;;;;;19.10;46.40;;;;;;5051629;28;19963;-53
2023/01/03 08:54:42;;;;;;;;;;;19.20;46.40;;;;;;5055543;28;20038;-53
2023/01/03 08:57:08;;;;;;;;;;;19.20;46.30;;;;;;5060633;28;19920;-53
2023/01/03 08:59:33;;;;;;;;;;;19.20;46.20;;;;;;5053215;28;19913;-53
2023/01/03 09:01:59;;;;;;;;;;;19.30;46.20;;;;;;5050610;28;20023;-54
2023/01/03 09:04:24;;;;;;;;;;;19.30;46.20;;;;;;5055085;28;19916;-53
2023/01/03 09:06:50;;;;;;;;;;;19.30;46.20;;;;;;5051431;28;20344;-53
2023/01/03 09:09:15;;;;;;;;;;;19.20;46.20;;;;;;5045778;28;19924;-53
2023/01/03 09:11:41;;;;;;;;;;;19.20;46.20;;;;;;5046295;28;20323;-53
2023/01/03 09:14:06;;;;;;;;;;;19.20;46.30;;;;;;5044890;28;20007;-53
2023/01/03 09:16:31;;;;;;;;;;;19.10;46.40;;;;;;5051326;28;19963;-52
2023/01/03 09:18:57;;;;;;;;;;;19.10;46.60;;;;;;5048737;28;19949;-53
2023/01/03 09:21:22;;;;;;;;;;;19.00;46.70;;;;;;5053088;28;19990;-53
2023/01/03 09:23:48;;;;;;;;;;;19.00;46.70;;;;;;5076112;28;19983;-54
2023/01/03 09:26:13;;;;;;;;;;;19.00;46.80;;;;;;5072954;28;19920;-55
2023/01/03 09:28:39;;;;;;;;;;;19.00;46.90;;;;;;5071737;28;20007;-52
2023/01/03 09:31:04;;;;;;;;;;;19.00;47.00;;;;;;5075572;28;19930;-53
2023/01/03 09:33:30;;;;;;;;;;;18.90;46.90;;;;;;5068047;28;19920;-53
2023/01/03 09:35:55;;;;;;;;;;;18.90;47.00;;;;;;5074185;28;19966;-52
2023/01/03 09:38:21;;;;;;;;;;;19.00;47.10;;;;;;5075144;28;20307;-53
2023/01/03 09:40:46;;;;;;;;;;;19.00;47.10;;;;;;5072104;28;20410;-53
2023/01/03 09:43:18;;;;;;;;;;;19.00;47.10;;;;;;5076124;28;19962;-53
2023/01/03 09:45:44;;;;;;;;;;;19.10;47.00;;;;;;5068065;28;19912;-54
2023/01/03 09:48:16;;;;;;;;;;;19.10;46.90;;;;;;5059853;28;20011;-53
2023/01/03 09:50:42;;;;;;;;;;;19.20;46.80;;;;;;5070711;28;19920;-53
2023/01/03 10:04:41;;;;;;;;;;;19.50;46.70;;;;;;5063302;28;20284;-53
2023/01/03 10:07:16;;;;;;;;;;;19.40;46.70;;;;;;5069475;28;20323;-53
2023/01/03 10:09:48;;;;;;;;;;;19.40;46.80;;;;;;5067505;28;20372;-53
2023/01/03 10:12:19;;;;;;;;;;;19.40;46.90;;;;;;5070818;28;20348;-53
2023/01/03 10:14:48;;;;;;;;;;;19.30;47.10;;;;;;5072571;28;19978;-54
2023/01/03 10:17:17;;;;;;;;;;;19.20;47.10;;;;;;5072903;28;19917;-55
2023/01/03 10:19:47;;;;;;;;;;;19.20;47.30;;;;;;5069319;28;20102;-52
2023/01/03 10:22:15;;;;;;;;;;;19.10;47.50;;;;;;5090041;28;20327;-53
2023/01/03 10:24:54;;;;;;;;;;;19.10;47.60;;;;;;5072796;28;20004;-53
2023/01/03 10:27:20;;;;;;;;;;;19.00;48.30;;;;;;5070539;28;19928;-53
2023/01/03 10:29:46;;;;;;;;;;;18.90;48.50;;;;;;5072440;28;19943;-53
2023/01/03 10:32:13;;;;;;;;;;;18.90;48.10;;;;;;5071753;28;21336;-53
2023/01/03 10:34:39;;;;;;;;;;;18.80;48.20;;;;;;5071344;28;19916;-53
2023/01/03 10:37:23;;;;;;;;;;;18.80;48.20;;;;;;5074152;28;19921;-52
2023/01/03 10:39:49;;;;;;;;;;;18.80;48.20;;;;;;5052385;28;19960;-53
2023/01/03 10:42:15;;;;;;;;;;;18.80;48.30;;;;;;5088385;28;19952;-54
2023/01/03 10:44:41;;;;;;;;;;;18.80;48.20;;;;;;5072235;28;19912;-53
2023/01/03 10:47:09;;;;;;;;;;;18.90;48.10;;;;;;5070306;28;19920;-53
2023/01/03 10:49:35;;;;;;;;;;;18.90;48.00;;;;;;5072177;28;19982;-53
2023/01/03 10:52:30;;;;;;;;;;;19.00;47.90;;;;;;5071942;28;19916;-53
2023/01/03 10:54:58;;;;;;;;;;;19.20;47.70;;;;;;5053281;28;20515;-54
2023/01/03 10:57:34;;;;;;;;;;;20.10;46.10;;;;;;5064580;28;19913;-54
2023/01/03 10:59:59;;;;;;;;;;;20.90;44.50;;;;;;5071887;28;19916;-54
2023/01/03 11:02:25;;;;;;;;;;;21.70;43.00;;;;;;5069889;28;19920;-54
2023/01/03 11:05:03;;;;;;;;;;;22.20;42.30;;;;;;5058341;28;19970;-54
2023/01/03 11:07:29;;;;;;;;;;;22.30;41.90;;;;;;5070040;28;19970;-54
2023/01/03 11:09:57;;;;;;;;;;;22.30;42.00;;;;;;5066472;28;19916;-53
2023/01/03 11:12:35;;;;;;;;;;;22.30;41.90;;;;;;5070953;28;19932;-53
2023/01/03 11:15:03;;;;;;;;;;;22.40;42.00;;;;;;5071166;28;19962;-53
2023/01/03 11:17:29;;;;;;;;;;;22.50;41.70;;;;;;5071859;28;20340;-53
2023/01/03 11:19:55;;;;;;;;;;;22.60;41.60;;;;;;5063558;28;20007;-55
2023/01/03 11:22:26;;;;;;;;;;;22.70;41.50;;;;;;5066079;28;20015;-53
2023/01/03 11:24:52;;;;;;;;;;;22.80;41.30;;;;;;5061837;28;21828;-55
2023/01/03 11:27:38;;;;;;;;;;;22.90;41.40;;;;;;5071773;28;19920;-55
2023/01/03 11:30:17;;;;;;;;;;;23.00;41.40;;;;;;5071481;28;19916;-55
2023/01/03 11:32:50;;;;;;;;;;;23.10;41.20;;;;;;5071587;28;19916;-55
2023/01/03 11:35:33;;;;;;;;;;;23.10;41.10;;;;;;5066948;28;19962;-53
2023/01/03 11:38:02;;;;;;;;;;;23.20;41.00;;;;;;5056244;28;19963;-53
2023/01/03 11:40:46;;;;;;;;;;;23.20;41.00;;;;;;5065544;28;19913;-54
2023/01/03 11:43:30;;;;;;;;;;;23.20;41.10;;;;;;5066057;28;19970;-54
2023/01/03 11:46:08;;;;;;;;;;;23.20;41.20;;;;;;5063997;28;19920;-54
2023/01/03 11:49:00;;;;;;;;;;;23.00;41.40;;;;;;5073620;28;19939;-57
2023/01/03 11:51:28;;;;;;;;;;;23.00;41.60;;;;;;5066565;28;19935;-54
2023/01/03 11:53:56;;;;;;;;;;;23.00;41.50;;;;;;5071305;28;19913;-56
2023/01/03 11:56:26;;;;;;;;;;;23.10;41.40;;;;;;5068156;28;19916;-54
2023/01/03 11:58:58;;;;;;;;;;;23.10;41.30;;;;;;5074036;28;19913;-54
2023/01/03 12:01:24;;;;;;;;;;;22.90;41.60;;;;;;5075700;28;20357;-55
2023/01/03 12:04:01;;;;;;;;;;;22.70;41.90;;;;;;5075356;28;19915;-54
2023/01/03 12:06:34;;;;;;;;;;;22.60;42.00;;;;;;5075408;28;19917;-54
2023/01/03 12:09:03;;;;;;;;;;;22.70;41.90;;;;;;5072602;28;19923;-55
2023/01/03 12:11:34;;;;;;;;;;;23.00;41.50;;;;;;5073118;28;19932;-54
2023/01/03 12:14:23;;;;;;;;;;;23.10;41.40;;;;;;5073276;28;19932;-53
2023/01/03 12:16:54;;;;;;;;;;;23.20;41.20;;;;;;5070520;28;19991;-54
2023/01/03 12:19:38;;;;;;;;;;;23.20;41.00;;;;;;5064903;28;20365;-54
2023/01/03 12:22:06;;;;;;;;;;;23.30;41.20;;;;;;5066435;28;19920;-55
2023/01/03 12:24:33;;;;;;;;;;;23.20;41.20;;;;;;5074701;28;19952;-55
2023/01/03 12:27:01;;;;;;;;;;;23.10;41.10;;;;;;5067730;28;19912;-54
2023/01/03 12:29:45;;;;;;;;;;;23.00;41.50;;;;;;5082056;28;19921;-54
2023/01/03 12:32:13;;;;;;;;;;;23.00;41.50;;;;;;5068364;28;19989;-54
2023/01/03 12:34:44;;;;;;;;;;;23.10;41.30;;;;;;5073550;28;20378;-53
2023/01/03 12:37:19;;;;;;;;;;;23.10;41.40;;;;;;5071424;28;20633;-54
2023/01/03 12:39:48;;;;;;;;;;;23.20;41.60;;;;;;5064072;28;20037;-53
2023/01/03 12:42:13;;;;;;;;;;;23.20;41.60;;;;;;5071171;28;19916;-56
2023/01/03 12:44:39;;;;;;;;;;;23.20;41.80;;;;;;5073583;28;19931;-54
2023/01/03 12:47:05;;;;;;;;;;;23.00;41.90;;;;;;5065939;28;20058;-53
2023/01/03 12:49:32;;;;;;;;;;;23.00;41.90;;;;;;5103077;28;20011;-53
2023/01/03 12:51:58;;;;;;;;;;;23.20;41.70;;;;;;5073827;28;19913;-54
2023/01/03 12:54:23;;;;;;;;;;;23.20;41.70;;;;;;5071505;28;19995;-54
2023/01/03 12:57:00;;;;;;;;;;;23.20;41.60;;;;;;5071079;28;19920;-53
2023/01/03 12:59:28;;;;;;;;;;;23.20;41.60;;;;;;5067770;28;19930;-56
2023/01/03 13:01:57;;;;;;;;;;;23.20;41.40;;;;;;5068634;28;20003;-55
2023/01/03 13:04:33;;;;;;;;;;;23.20;41.30;;;;;;5097025;28;19931;-55
2023/01/03 13:07:12;;;;;;;;;;;23.30;41.20;;;;;;5063316;28;20042;-55
2023/01/03 13:09:39;;;;;;;;;;;23.40;41.00;;;;;;5097868;28;19920;-55
2023/01/03 13:12:06;;;;;;;;;;;23.40;41.00;;;;;;5065848;28;19913;-56
2023/01/03 13:14:35;;;;;;;;;;;23.40;40.90;;;;;;5069894;28;20007;-55
2023/01/03 13:17:05;;;;;;;;;;;23.40;40.80;;;;;;5069464;28;20396;-55
2023/01/03 13:19:34;;;;;;;;;;;23.50;40.80;;;;;;5055850;28;19937;-55
2023/01/03 13:22:00;;;;;;;;;;;23.50;40.60;;;;;;5053954;28;19925;-55
2023/01/03 13:24:39;;;;;;;;;;;23.50;40.80;;;;;;5066778;28;20285;-55
2023/01/03 13:27:19;;;;;;;;;;;23.40;40.90;;;;;;5070335;28;20412;-55
2023/01/03 13:29:48;;;;;;;;;;;23.30;41.00;;;;;;5073617;28;20279;-56
2023/01/03 13:32:22;;;;;;;;;;;23.20;41.00;;;;;;5074058;28;19920;-54
2023/01/03 13:34:56;;;;;;;;;;;23.20;41.00;;;;;;5060459;28;20035;-56
2023/01/03 13:37:25;;;;;;;;;;;23.20;41.60;;;;;;5064820;28;20257;-54
2023/01/03 13:39:51;;;;;;;;;;;23.30;41.00;;;;;;5067897;28;19965;-55
2023/01/03 13:42:20;;;;;;;;;;;23.10;41.30;;;;;;5066445;28;19925;-53
2023/01/03 13:44:45;;;;;;;;;;;22.90;41.50;;;;;;5100927;28;19970;-54
2023/01/03 13:47:24;;;;;;;;;;;22.90;41.50;;;;;;5102052;28;20327;-54
2023/01/03 13:49:49;;;;;;;;;;;23.00;41.40;;;;;;5073031;28;19926;-55
2023/01/03 13:52:34;;;;;;;;;;;23.00;41.40;;;;;;5102309;27;20488;-54
2023/01/03 13:55:01;;;;;;;;;;;22.80;41.50;;;;;;5070188;28;19912;-54
2023/01/03 13:57:28;;;;;;;;;;;22.80;41.70;;;;;;5070633;28;19920;-54
2023/01/03 13:59:53;;;;;;;;;;;22.90;41.60;;;;;;5070564;28;19935;-55
2023/01/03 14:02:30;;;;;;;;;;;23.10;41.30;;;;;;5072238;28;20360;-55
2023/01/03 14:04:56;;;;;;;;;;;23.20;40.80;;;;;;5068288;28;19931;-54
2023/01/03 14:07:40;;;;;;;;;;;23.30;40.70;;;;;;5070758;28;19920;-54
2023/01/03 14:10:12;;;;;;;;;;;23.40;40.60;;;;;;5065651;28;19966;-54
2023/01/03 14:12:57;;;;;;;;;;;23.40;40.50;;;;;;5072850;28;20284;-54
2023/01/03 14:15:24;;;;;;;;;;;23.40;40.40;;;;;;5072248;28;19966;-54
2023/01/03 14:17:54;;;;;;;;;;;23.50;40.40;;;;;;5071240;28;19912;-54
2023/01/03 14:20:31;;;;;;;;;;;23.40;40.40;;;;;;5070802;28;19958;-54
2023/01/03 14:22:58;;;;;;;;;;;23.40;40.60;;;;;;5104251;28;19990;-54
2023/01/03 14:25:33;;;;;;;;;;;23.30;40.60;;;;;;5062423;28;20332;-53
2023/01/03 14:27:59;;;;;;;;;;;23.20;40.90;;;;;;5067439;28;19968;-55
2023/01/03 14:30:27;;;;;;;;;;;23.20;40.70;;;;;;5066329;28;19916;-55
2023/01/03 14:32:52;;;;;;;;;;;23.30;40.70;;;;;;5071495;28;19920;-54
2023/01/03 14:35:34;;;;;;;;;;;23.30;40.60;;;;;;5073973;28;19995;-54
2023/01/03 14:37:59;;;;;;;;;;;23.30;40.70;;;;;;5059425;28;20380;-54
2023/01/03 14:40:24;;;;;;;;;;;23.30;40.70;;;;;;5059123;28;19973;-53
2023/01/03 14:42:50;;;;;;;;;;;23.40;40.70;;;;;;5068207;28;20011;-51
2023/01/03 14:45:16;;;;;;;;;;;23.40;40.80;;;;;;5060408;28;20391;-53
2023/01/03 14:47:41;;;;;;;;;;;23.30;40.80;;;;;;5062898;28;20424;-53
2023/01/03 14:50:12;;;;;;;;;;;23.20;40.90;;;;;;5099741;28;20043;-52
2023/01/03 14:52:39;;;;;;;;;;;23.10;41.10;;;;;;5070086;28;19920;-53
2023/01/03 14:55:28;;;;;;;;;;;23.10;41.30;;;;;;5060849;28;20007;-53
2023/01/03 14:57:53;;;;;;;;;;;23.30;40.90;;;;;;5053813;28;19912;-54
2023/01/03 15:00:20;;;;;;;;;;;23.70;40.40;;;;;;5061558;28;19920;-52
2023/01/03 15:02:45;;;;;;;;;;;23.90;39.90;;;;;;5070240;28;20319;-53
2023/01/03 15:05:16;;;;;;;;;;;24.10;39.60;;;;;;5069052;28;20008;-54
2023/01/03 15:07:42;;;;;;;;;;;24.30;39.50;;;;;;5060307;28;19916;-52
2023/01/03 15:10:10;;;;;;;;;;;24.40;39.20;;;;;;5062442;28;19924;-53
2023/01/03 15:12:37;;;;;;;;;;;24.40;39.10;;;;;;5063964;28;19997;-52
2023/01/03 15:15:07;;;;;;;;;;;24.50;39.10;;;;;;5061644;28;19913;-54
2023/01/03 15:17:32;;;;;;;;;;;24.50;39.10;;;;;;5067065;28;19919;-53
2023/01/03 15:19:58;;;;;;;;;;;24.60;39.20;;;;;;5058590;28;20296;-53